createdAt,value
2017-02-21T00:00:26.414Z,0
2017-02-21T00:01:35.754Z,0
2017-02-21T00:02:45.094Z,0
2017-02-21T00:03:54.169Z,0
2017-02-21T00:05:03.096Z,0
2017-02-21T00:06:12.449Z,0
2017-02-21T00:07:21.377Z,0
2017-02-21T00:08:30.306Z,0
2017-02-21T00:09:40.146Z,0
2017-02-21T00:10:49.116Z,0
2017-02-21T00:11:58.064Z,0
2017-02-21T00:13:07.813Z,0
2017-02-21T00:14:18.390Z,0
2017-02-21T00:15:27.871Z,0
2017-02-21T00:16:37.205Z,0
2017-02-21T00:17:46.987Z,0
2017-02-21T00:18:56.755Z,0
2017-02-21T00:20:06.089Z,0
2017-02-21T00:21:15.720Z,0
2017-02-21T00:22:25.045Z,0
2017-02-21T00:23:33.997Z,0
2017-02-21T00:24:43.762Z,0
2017-02-21T00:25:52.704Z,0
2017-02-21T00:27:02.092Z,0
2017-02-21T00:28:11.042Z,0
2017-02-21T00:29:19.975Z,0
2017-02-21T00:30:30.536Z,0
2017-02-21T00:31:39.874Z,0
2017-02-21T00:32:49.761Z,0
2017-02-21T00:33:58.696Z,0
2017-02-21T00:35:08.038Z,0
2017-02-21T00:36:17.377Z,0
2017-02-21T00:37:27.937Z,0
2017-02-21T00:38:36.916Z,0
2017-02-21T00:39:46.665Z,0
2017-02-21T00:40:56.830Z,0
2017-02-21T00:42:06.172Z,0
2017-02-21T00:43:15.106Z,0
2017-02-21T00:44:25.263Z,0
2017-02-21T00:45:35.455Z,0
2017-02-21T00:46:45.191Z,0
2017-02-21T00:47:54.536Z,0
2017-02-21T00:49:04.304Z,0
2017-02-21T00:50:13.341Z,0
2017-02-21T00:51:22.270Z,0
2017-02-21T00:52:31.202Z,0
2017-02-21T00:53:40.961Z,0
2017-02-21T00:54:49.882Z,0
2017-02-21T00:55:59.899Z,0
2017-02-21T00:57:09.237Z,0
2017-02-21T00:58:18.174Z,0
2017-02-21T00:59:28.325Z,0
2017-02-21T01:00:37.739Z,0
2017-02-21T01:01:47.486Z,0
2017-02-21T01:02:57.244Z,0
2017-02-21T01:04:06.582Z,0
2017-02-21T01:05:15.945Z,0
2017-02-21T01:06:25.721Z,0
2017-02-21T01:07:35.220Z,0
2017-02-21T01:08:44.966Z,0
2017-02-21T01:09:54.317Z,0
2017-02-21T01:11:05.287Z,0
2017-02-21T01:12:15.865Z,0
2017-02-21T01:13:25.803Z,0
2017-02-21T01:14:35.565Z,0
2017-02-21T01:15:44.914Z,0
2017-02-21T01:16:54.658Z,0
2017-02-21T01:18:04.426Z,0
2017-02-21T01:19:14.925Z,0
2017-02-21T01:20:24.681Z,0
2017-02-21T01:21:33.627Z,0
2017-02-21T01:22:42.555Z,0
2017-02-21T01:23:52.308Z,0
2017-02-21T01:25:02.965Z,0
2017-02-21T01:26:12.735Z,0
2017-02-21T01:27:22.086Z,0
2017-02-21T01:28:32.280Z,0
2017-02-21T01:29:42.442Z,0
2017-02-21T01:30:52.760Z,0
2017-02-21T01:32:02.119Z,0
2017-02-21T01:33:11.460Z,0
2017-02-21T01:34:20.416Z,0
2017-02-21T01:35:30.563Z,0
2017-02-21T01:36:40.213Z,0
2017-02-21T01:37:49.965Z,0
2017-02-21T01:39:00.533Z,0
2017-02-21T01:40:10.296Z,0
2017-02-21T01:41:20.038Z,0
2017-02-21T01:42:29.286Z,0
2017-02-21T01:43:38.212Z,0
2017-02-21T01:44:47.553Z,0
2017-02-21T01:45:56.898Z,0
2017-02-21T01:47:06.240Z,0
2017-02-21T01:48:15.744Z,0
2017-02-21T01:49:25.508Z,0
2017-02-21T01:50:35.255Z,0
2017-02-21T01:51:44.594Z,0
2017-02-21T01:52:54.380Z,0
2017-02-21T01:54:03.975Z,0
2017-02-21T01:55:12.913Z,0
2017-02-21T01:56:22.281Z,0
2017-02-21T01:57:32.450Z,0
2017-02-21T01:58:41.783Z,0
2017-02-21T01:59:51.240Z,0
2017-02-21T02:01:00.580Z,0
2017-02-21T02:02:09.560Z,0
2017-02-21T02:03:18.912Z,0
2017-02-21T02:04:28.258Z,0
2017-02-21T02:05:37.704Z,0
2017-02-21T02:06:46.642Z,0
2017-02-21T02:07:55.603Z,0
2017-02-21T02:09:05.362Z,0
2017-02-21T02:10:14.715Z,0
2017-02-21T02:11:24.109Z,0
2017-02-21T02:12:33.441Z,0
2017-02-21T02:13:42.376Z,0
2017-02-21T02:14:51.721Z,0
2017-02-21T02:16:01.880Z,0
2017-02-21T02:17:11.770Z,0
2017-02-21T02:18:21.520Z,0
2017-02-21T02:19:30.855Z,0
2017-02-21T02:20:40.194Z,0
2017-02-21T02:21:49.535Z,0
2017-02-21T02:22:59.549Z,0
2017-02-21T02:24:08.905Z,0
2017-02-21T02:25:18.239Z,0
2017-02-21T02:26:27.569Z,0
2017-02-21T02:27:37.343Z,0
2017-02-21T02:28:46.425Z,0
2017-02-21T02:29:55.781Z,0
2017-02-21T02:31:05.544Z,0
2017-02-21T02:32:15.730Z,0
2017-02-21T02:33:25.472Z,0
2017-02-21T02:34:35.371Z,0
2017-02-21T02:35:45.138Z,0
2017-02-21T02:36:55.355Z,0
2017-02-21T02:38:05.114Z,0
2017-02-21T02:39:14.444Z,0
2017-02-21T02:40:23.941Z,0
2017-02-21T02:41:33.682Z,0
2017-02-21T02:42:43.492Z,0
2017-02-21T02:43:52.850Z,0
2017-02-21T02:45:02.200Z,0
2017-02-21T02:46:11.848Z,0
2017-02-21T02:47:21.207Z,0
2017-02-21T02:48:30.954Z,0
2017-02-21T02:49:40.698Z,0
2017-02-21T02:50:50.066Z,0
2017-02-21T02:51:59.249Z,0
2017-02-21T02:53:08.998Z,0
2017-02-21T02:54:18.756Z,0
2017-02-21T02:55:28.101Z,0
2017-02-21T02:56:37.843Z,0
2017-02-21T02:57:47.328Z,0
2017-02-21T02:58:57.072Z,0
2017-02-21T03:00:07.221Z,0
2017-02-21T03:01:16.993Z,0
2017-02-21T03:02:26.342Z,0
2017-02-21T03:03:35.326Z,0
2017-02-21T03:04:44.698Z,0
2017-02-21T03:05:54.444Z,0
2017-02-21T03:07:04.620Z,0
2017-02-21T03:08:14.360Z,0
2017-02-21T03:09:23.858Z,0
2017-02-21T03:10:33.599Z,0
2017-02-21T03:11:42.955Z,0
2017-02-21T03:12:51.893Z,0
2017-02-21T03:14:01.249Z,0
2017-02-21T03:15:10.634Z,0
2017-02-21T03:16:20.383Z,0
2017-02-21T03:17:29.732Z,0
2017-02-21T03:18:39.079Z,0
2017-02-21T03:19:49.240Z,0
2017-02-21T03:20:59.155Z,0
2017-02-21T03:22:08.914Z,0
2017-02-21T03:23:18.273Z,0
2017-02-21T03:24:28.034Z,0
2017-02-21T03:25:37.373Z,0
2017-02-21T03:26:47.010Z,0
2017-02-21T03:27:57.176Z,0
2017-02-21T03:29:06.938Z,0
2017-02-21T03:30:16.684Z,0
2017-02-21T03:31:26.434Z,0
2017-02-21T03:32:36.324Z,0
2017-02-21T03:33:45.667Z,0
2017-02-21T03:34:55.816Z,0
2017-02-21T03:36:05.156Z,0
2017-02-21T03:37:14.497Z,0
2017-02-21T03:38:24.313Z,0
2017-02-21T03:39:34.081Z,0
2017-02-21T03:40:43.825Z,0
2017-02-21T03:41:53.175Z,0
2017-02-21T03:43:02.926Z,0
2017-02-21T03:44:12.710Z,0
2017-02-21T03:45:22.049Z,0
2017-02-21T03:46:31.396Z,0
2017-02-21T03:47:41.549Z,0
2017-02-21T03:48:51.294Z,0
2017-02-21T03:50:00.273Z,0
2017-02-21T03:51:10.426Z,0
2017-02-21T03:52:20.216Z,0
2017-02-21T03:53:29.557Z,0
2017-02-21T03:54:38.919Z,0
2017-02-21T03:55:48.316Z,0
2017-02-21T03:56:57.256Z,0
2017-02-21T03:58:07.014Z,0
2017-02-21T03:59:17.188Z,0
2017-02-21T04:00:26.533Z,0
2017-02-21T04:01:36.335Z,0
2017-02-21T04:02:45.699Z,0
2017-02-21T04:03:55.058Z,0
2017-02-21T04:05:04.402Z,0
2017-02-21T04:06:13.747Z,0
2017-02-21T04:07:22.941Z,0
2017-02-21T04:08:32.688Z,0
2017-02-21T04:09:42.044Z,0
2017-02-21T04:10:51.781Z,0
2017-02-21T04:12:01.550Z,0
2017-02-21T04:13:10.891Z,0
2017-02-21T04:14:20.646Z,0
2017-02-21T04:15:29.579Z,0
2017-02-21T04:16:38.921Z,0
2017-02-21T04:17:48.285Z,0
2017-02-21T04:18:58.086Z,0
2017-02-21T04:20:07.459Z,0
2017-02-21T04:21:16.402Z,0
2017-02-21T04:22:25.772Z,0
2017-02-21T04:23:35.545Z,0
2017-02-21T04:24:45.454Z,0
2017-02-21T04:25:54.412Z,0
2017-02-21T04:27:03.338Z,0
2017-02-21T04:28:12.678Z,0
2017-02-21T04:29:21.607Z,0
2017-02-21T04:30:30.959Z,0
2017-02-21T04:31:40.712Z,0
2017-02-21T04:32:50.058Z,0
2017-02-21T04:33:58.990Z,0
2017-02-21T04:35:09.576Z,0
2017-02-21T04:36:18.995Z,0
2017-02-21T04:37:28.746Z,0
2017-02-21T04:38:38.118Z,0
2017-02-21T04:39:47.518Z,0
2017-02-21T04:40:56.448Z,0
2017-02-21T04:42:06.489Z,0
2017-02-21T04:43:15.853Z,0
2017-02-21T04:44:26.433Z,0
2017-02-21T04:45:36.190Z,0
2017-02-21T04:46:45.546Z,0
2017-02-21T04:47:54.932Z,0
2017-02-21T04:49:04.321Z,0
2017-02-21T04:50:13.673Z,0
2017-02-21T04:51:22.630Z,0
2017-02-21T04:52:32.379Z,0
2017-02-21T04:53:42.678Z,0
2017-02-21T04:54:52.014Z,0
2017-02-21T04:56:02.193Z,0
2017-02-21T04:57:11.132Z,0
2017-02-21T04:58:20.455Z,0
2017-02-21T04:59:30.343Z,0
2017-02-21T05:00:40.520Z,0
2017-02-21T05:01:49.471Z,0
2017-02-21T05:02:58.407Z,0
2017-02-21T05:04:07.759Z,0
2017-02-21T05:05:17.253Z,0
2017-02-21T05:06:26.581Z,0
2017-02-21T05:07:36.331Z,0
2017-02-21T05:08:46.896Z,0
2017-02-21T05:09:56.251Z,0
2017-02-21T05:11:05.797Z,0
2017-02-21T05:12:14.720Z,0
2017-02-21T05:13:23.668Z,0
2017-02-21T05:14:33.006Z,0
2017-02-21T05:15:42.760Z,0
2017-02-21T05:16:51.699Z,0
2017-02-21T05:18:00.620Z,0
2017-02-21T05:19:09.556Z,0
2017-02-21T05:20:18.908Z,0
2017-02-21T05:21:28.673Z,0
2017-02-21T05:22:38.576Z,0
2017-02-21T05:23:48.317Z,0
2017-02-21T05:24:58.471Z,0
2017-02-21T05:26:07.441Z,0
2017-02-21T05:27:18.014Z,0
2017-02-21T05:28:27.941Z,0
2017-02-21T05:29:37.283Z,0
2017-02-21T05:30:47.047Z,0
2017-02-21T05:31:56.387Z,0
2017-02-21T05:33:05.752Z,0
2017-02-21T05:34:15.601Z,0
2017-02-21T05:35:24.937Z,0
2017-02-21T05:36:35.532Z,0
2017-02-21T05:37:44.902Z,0
2017-02-21T05:38:54.251Z,0
2017-02-21T05:40:03.176Z,0
2017-02-21T05:41:12.505Z,0
2017-02-21T05:42:21.842Z,0
2017-02-21T05:43:30.790Z,0
2017-02-21T05:44:40.297Z,0
2017-02-21T05:45:50.068Z,0
2017-02-21T05:46:59.014Z,0
2017-02-21T05:48:08.774Z,0
2017-02-21T05:49:18.519Z,0
2017-02-21T05:50:27.519Z,0
2017-02-21T05:51:37.276Z,0
2017-02-21T05:52:46.624Z,0
2017-02-21T05:53:56.378Z,0
2017-02-21T05:55:06.554Z,0
2017-02-21T05:56:15.628Z,0
2017-02-21T05:57:24.989Z,0
2017-02-21T05:58:34.321Z,0
2017-02-21T05:59:43.246Z,0
2017-02-21T06:00:52.574Z,0
2017-02-21T06:02:02.111Z,0
2017-02-21T06:03:11.032Z,0
2017-02-21T06:04:19.964Z,0
2017-02-21T06:05:29.733Z,0
2017-02-21T06:06:39.480Z,0
2017-02-21T06:07:48.869Z,0
2017-02-21T06:08:58.619Z,0
2017-02-21T06:10:07.536Z,0
2017-02-21T06:11:16.877Z,0
2017-02-21T06:12:26.222Z,0
2017-02-21T06:13:35.610Z,0
2017-02-21T06:14:45.366Z,0
2017-02-21T06:15:55.104Z,0
2017-02-21T06:17:04.431Z,0
2017-02-21T06:18:14.986Z,0
2017-02-21T06:19:24.495Z,0
2017-02-21T06:20:34.252Z,0
2017-02-21T06:21:43.993Z,0
2017-02-21T06:22:52.935Z,0
2017-02-21T06:24:02.286Z,0
2017-02-21T06:25:11.795Z,0
2017-02-21T06:26:21.538Z,0
2017-02-21T06:27:31.281Z,0
2017-02-21T06:28:40.198Z,0
2017-02-21T06:29:49.125Z,5
2017-02-21T06:30:58.775Z,5
2017-02-21T06:32:07.726Z,5
2017-02-21T06:33:17.056Z,5
2017-02-21T06:34:27.205Z,5
2017-02-21T06:35:36.130Z,5
2017-02-21T06:36:45.213Z,5
2017-02-21T06:37:54.532Z,5
2017-02-21T06:39:03.447Z,5
2017-02-21T06:40:13.594Z,5
2017-02-21T06:41:24.163Z,5
2017-02-21T06:42:33.229Z,5
2017-02-21T06:43:43.372Z,5
2017-02-21T06:44:53.098Z,5
2017-02-21T06:46:03.302Z,5
2017-02-21T06:47:13.471Z,5
2017-02-21T06:48:23.730Z,5
2017-02-21T06:49:33.050Z,5
2017-02-21T06:50:43.193Z,5
2017-02-21T06:51:52.933Z,5
2017-02-21T06:53:02.257Z,10
2017-02-21T06:54:11.628Z,15
2017-02-21T06:55:21.766Z,20
2017-02-21T06:56:31.495Z,30
2017-02-21T06:57:41.635Z,35
2017-02-21T06:58:50.572Z,35
2017-02-21T07:00:00.414Z,40
2017-02-21T07:01:09.792Z,35
2017-02-21T07:02:19.553Z,30
2017-02-21T07:03:29.296Z,30
2017-02-21T07:04:38.623Z,30
2017-02-21T07:05:47.711Z,35
2017-02-21T07:06:57.043Z,35
2017-02-21T07:08:06.378Z,45
2017-02-21T07:09:15.697Z,55
2017-02-21T07:10:25.026Z,65
2017-02-21T07:11:35.112Z,65
2017-02-21T07:12:45.266Z,60
2017-02-21T07:13:54.598Z,50
2017-02-21T07:15:04.747Z,45
2017-02-21T07:16:14.079Z,55
2017-02-21T07:17:24.520Z,50
2017-02-21T07:18:34.275Z,55
2017-02-21T07:19:44.003Z,60
2017-02-21T07:20:52.929Z,65
2017-02-21T07:22:01.850Z,70
2017-02-21T07:23:10.928Z,60
2017-02-21T07:24:21.078Z,50
2017-02-21T07:25:30.414Z,45
2017-02-21T07:26:39.360Z,50
2017-02-21T07:27:49.513Z,45
2017-02-21T07:28:59.301Z,50
2017-02-21T07:30:09.446Z,55
2017-02-21T07:31:18.791Z,55
2017-02-21T07:32:28.534Z,45
2017-02-21T07:33:37.866Z,40
2017-02-21T07:34:47.253Z,35
2017-02-21T07:35:56.599Z,35
2017-02-21T07:37:05.548Z,35
2017-02-21T07:38:14.459Z,40
2017-02-21T07:39:24.207Z,40
2017-02-21T07:40:34.430Z,55
2017-02-21T07:41:44.170Z,70
2017-02-21T07:42:53.493Z,80
2017-02-21T07:44:03.258Z,85
2017-02-21T07:45:12.591Z,95
2017-02-21T07:46:21.657Z,100
2017-02-21T07:47:31.398Z,95
2017-02-21T07:48:41.147Z,105
2017-02-21T07:49:50.912Z,125
2017-02-21T07:51:00.246Z,130
2017-02-21T07:52:10.140Z,130
2017-02-21T07:53:19.460Z,145
2017-02-21T07:54:29.631Z,150
2017-02-21T07:55:38.566Z,160
2017-02-21T07:56:47.910Z,165
2017-02-21T07:57:58.859Z,150
2017-02-21T07:59:08.613Z,145
2017-02-21T08:00:18.760Z,135
2017-02-21T08:01:28.924Z,145
2017-02-21T08:02:39.503Z,155
2017-02-21T08:03:48.519Z,175
2017-02-21T08:04:58.257Z,155
2017-02-21T08:06:07.608Z,145
2017-02-21T08:07:16.941Z,130
2017-02-21T08:08:26.271Z,115
2017-02-21T08:09:36.174Z,120
2017-02-21T08:10:46.322Z,115
2017-02-21T08:11:55.659Z,115
2017-02-21T08:13:05.427Z,125
2017-02-21T08:14:14.757Z,130
2017-02-21T08:15:24.143Z,145
2017-02-21T08:16:33.056Z,140
2017-02-21T08:17:42.783Z,130
2017-02-21T08:18:52.124Z,125
2017-02-21T08:20:01.867Z,135
2017-02-21T08:21:10.976Z,135
2017-02-21T08:22:20.727Z,145
2017-02-21T08:23:30.093Z,145
2017-02-21T08:24:39.857Z,150
2017-02-21T08:25:50.024Z,155
2017-02-21T08:26:59.402Z,155
2017-02-21T08:28:09.545Z,150
2017-02-21T08:29:18.872Z,145
2017-02-21T08:30:28.212Z,140
2017-02-21T08:31:37.946Z,145
2017-02-21T08:32:47.035Z,150
2017-02-21T08:33:56.764Z,155
2017-02-21T08:35:06.524Z,160
2017-02-21T08:36:16.667Z,160
2017-02-21T08:37:26.001Z,170
2017-02-21T08:38:34.926Z,190
2017-02-21T08:39:44.270Z,210
2017-02-21T08:40:54.430Z,210
2017-02-21T08:42:03.764Z,205
2017-02-21T08:43:12.674Z,205
2017-02-21T08:44:21.643Z,215
2017-02-21T08:45:30.981Z,220
2017-02-21T08:46:39.901Z,225
2017-02-21T08:47:49.665Z,225
2017-02-21T08:48:59.393Z,235
2017-02-21T08:50:09.558Z,245
2017-02-21T08:51:18.878Z,250
2017-02-21T08:52:28.605Z,250
2017-02-21T08:53:38.339Z,235
2017-02-21T08:54:48.487Z,230
2017-02-21T08:55:57.986Z,220
2017-02-21T08:57:07.304Z,210
2017-02-21T08:58:17.038Z,205
2017-02-21T08:59:26.353Z,210
2017-02-21T09:00:35.286Z,205
2017-02-21T09:01:45.270Z,200
2017-02-21T09:02:54.187Z,195
2017-02-21T09:04:03.527Z,240
2017-02-21T09:05:13.266Z,270
2017-02-21T09:06:23.425Z,265
2017-02-21T09:07:32.830Z,240
2017-02-21T09:08:42.157Z,230
2017-02-21T09:09:51.478Z,265
2017-02-21T09:11:00.407Z,265
2017-02-21T09:12:09.747Z,265
2017-02-21T09:13:19.139Z,270
2017-02-21T09:14:28.875Z,265
2017-02-21T09:15:37.811Z,270
2017-02-21T09:16:47.578Z,270
2017-02-21T09:17:56.494Z,250
2017-02-21T09:19:05.976Z,225
2017-02-21T09:20:14.895Z,205
2017-02-21T09:21:25.043Z,215
2017-02-21T09:22:34.406Z,285
2017-02-21T09:23:44.559Z,300
2017-02-21T09:24:53.948Z,305
2017-02-21T09:26:03.293Z,310
2017-02-21T09:27:12.219Z,310
2017-02-21T09:28:21.562Z,275
2017-02-21T09:29:31.700Z,285
2017-02-21T09:30:41.355Z,240
2017-02-21T09:31:51.082Z,295
2017-02-21T09:33:00.409Z,255
2017-02-21T09:34:10.136Z,315
2017-02-21T09:35:19.462Z,350
2017-02-21T09:36:28.687Z,350
2017-02-21T09:37:38.417Z,325
2017-02-21T09:38:47.740Z,320
2017-02-21T09:39:57.909Z,320
2017-02-21T09:41:07.672Z,305
2017-02-21T09:42:16.661Z,265
2017-02-21T09:43:25.998Z,215
2017-02-21T09:44:36.147Z,240
2017-02-21T09:45:45.881Z,255
2017-02-21T09:46:55.211Z,250
2017-02-21T09:48:04.198Z,265
2017-02-21T09:49:13.543Z,295
2017-02-21T09:50:23.301Z,325
2017-02-21T09:51:33.060Z,290
2017-02-21T09:52:41.997Z,275
2017-02-21T09:53:51.629Z,290
2017-02-21T09:55:00.966Z,340
2017-02-21T09:56:10.690Z,370
2017-02-21T09:57:19.599Z,395
2017-02-21T09:58:28.538Z,375
2017-02-21T09:59:38.067Z,315
2017-02-21T10:00:46.982Z,325
2017-02-21T10:01:56.329Z,305
2017-02-21T10:03:06.087Z,335
2017-02-21T10:04:15.417Z,370
2017-02-21T10:05:24.391Z,380
2017-02-21T10:06:34.133Z,370
2017-02-21T10:07:43.047Z,365
2017-02-21T10:08:52.783Z,380
2017-02-21T10:10:02.124Z,365
2017-02-21T10:11:12.479Z,355
2017-02-21T10:12:22.239Z,335
2017-02-21T10:13:32.005Z,360
2017-02-21T10:14:40.927Z,310
2017-02-21T10:15:51.082Z,275
2017-02-21T10:17:00.875Z,295
2017-02-21T10:18:11.022Z,330
2017-02-21T10:19:20.776Z,355
2017-02-21T10:20:30.521Z,405
2017-02-21T10:21:40.265Z,355
2017-02-21T10:22:49.737Z,365
2017-02-21T10:23:59.070Z,390
2017-02-21T10:25:08.395Z,345
2017-02-21T10:26:18.956Z,370
2017-02-21T10:27:28.275Z,385
2017-02-21T10:28:37.747Z,360
2017-02-21T10:29:47.073Z,355
2017-02-21T10:30:56.021Z,330
2017-02-21T10:32:05.789Z,350
2017-02-21T10:33:15.520Z,365
2017-02-21T10:34:25.166Z,410
2017-02-21T10:35:35.330Z,420
2017-02-21T10:36:44.665Z,445
2017-02-21T10:37:54.426Z,445
2017-02-21T10:39:04.194Z,455
2017-02-21T10:40:13.687Z,475
2017-02-21T10:41:23.031Z,460
2017-02-21T10:42:32.384Z,465
2017-02-21T10:43:41.710Z,490
2017-02-21T10:44:51.047Z,495
2017-02-21T10:46:00.886Z,485
2017-02-21T10:47:11.031Z,500
2017-02-21T10:48:19.966Z,495
2017-02-21T10:49:28.895Z,480
2017-02-21T10:50:38.238Z,515
2017-02-21T10:51:48.013Z,530
2017-02-21T10:52:57.360Z,520
2017-02-21T10:54:06.693Z,465
2017-02-21T10:55:15.633Z,430
2017-02-21T10:56:25.395Z,450
2017-02-21T10:57:35.293Z,430
2017-02-21T10:58:45.035Z,405
2017-02-21T10:59:54.393Z,345
2017-02-21T11:01:04.140Z,375
2017-02-21T11:02:13.888Z,300
2017-02-21T11:03:23.779Z,265
2017-02-21T11:04:33.521Z,260
2017-02-21T11:05:43.680Z,325
2017-02-21T11:06:53.410Z,435
2017-02-21T11:08:02.737Z,405
2017-02-21T11:09:12.108Z,345
2017-02-21T11:10:21.448Z,345
2017-02-21T11:11:30.375Z,340
2017-02-21T11:12:39.718Z,365
2017-02-21T11:13:49.084Z,415
2017-02-21T11:14:58.459Z,445
2017-02-21T11:16:07.789Z,445
2017-02-21T11:17:17.525Z,440
2017-02-21T11:18:26.865Z,420
2017-02-21T11:19:35.794Z,415
2017-02-21T11:20:45.185Z,440
2017-02-21T11:21:54.522Z,395
2017-02-21T11:23:04.274Z,355
2017-02-21T11:24:14.024Z,350
2017-02-21T11:25:22.942Z,295
2017-02-21T11:26:32.432Z,330
2017-02-21T11:27:41.783Z,355
2017-02-21T11:28:51.941Z,420
2017-02-21T11:30:01.271Z,375
2017-02-21T11:31:10.211Z,385
2017-02-21T11:32:19.749Z,340
2017-02-21T11:33:29.905Z,300
2017-02-21T11:34:40.060Z,320
2017-02-21T11:35:49.812Z,425
2017-02-21T11:36:59.151Z,425
2017-02-21T11:38:08.625Z,445
2017-02-21T11:39:17.980Z,465
2017-02-21T11:40:27.325Z,450
2017-02-21T11:41:37.066Z,390
2017-02-21T11:42:46.392Z,385
2017-02-21T11:43:55.777Z,370
2017-02-21T11:45:05.128Z,370
2017-02-21T11:46:14.465Z,350
2017-02-21T11:47:23.792Z,325
2017-02-21T11:48:33.550Z,285
2017-02-21T11:49:42.927Z,295
2017-02-21T11:50:52.658Z,290
2017-02-21T11:52:02.394Z,325
2017-02-21T11:53:12.133Z,320
2017-02-21T11:54:21.483Z,290
2017-02-21T11:55:31.413Z,365
2017-02-21T11:56:40.748Z,355
2017-02-21T11:57:49.661Z,370
2017-02-21T11:58:59.393Z,415
2017-02-21T12:00:08.763Z,435
2017-02-21T12:01:18.275Z,485
2017-02-21T12:02:28.036Z,500
2017-02-21T12:03:37.789Z,460
2017-02-21T12:04:47.563Z,455
2017-02-21T12:05:56.896Z,425
2017-02-21T12:07:06.406Z,470
2017-02-21T12:08:15.347Z,515
2017-02-21T12:09:24.692Z,540
2017-02-21T12:10:34.014Z,635
2017-02-21T12:11:42.943Z,645
2017-02-21T12:12:52.177Z,990
2017-02-21T12:14:01.936Z,1030
2017-02-21T12:15:10.891Z,655
2017-02-21T12:16:20.218Z,895
2017-02-21T12:17:29.565Z,820
2017-02-21T12:18:39.066Z,945
2017-02-21T12:19:48.421Z,820
2017-02-21T12:20:58.156Z,990
2017-02-21T12:22:08.343Z,1035
2017-02-21T12:23:17.684Z,810
2017-02-21T12:24:26.762Z,930
2017-02-21T12:25:36.509Z,715
2017-02-21T12:26:45.448Z,715
2017-02-21T12:27:55.189Z,620
2017-02-21T12:29:04.529Z,385
2017-02-21T12:30:14.259Z,425
2017-02-21T12:31:24.001Z,425
2017-02-21T12:32:32.936Z,360
2017-02-21T12:33:42.306Z,235
2017-02-21T12:34:52.035Z,225
2017-02-21T12:36:01.510Z,275
2017-02-21T12:37:10.836Z,430
2017-02-21T12:38:19.763Z,500
2017-02-21T12:39:29.914Z,420
2017-02-21T12:40:39.656Z,360
2017-02-21T12:41:49.744Z,320
2017-02-21T12:43:00.306Z,505
2017-02-21T12:44:09.637Z,325
2017-02-21T12:45:18.972Z,260
2017-02-21T12:46:28.336Z,240
2017-02-21T12:47:38.146Z,240
2017-02-21T12:48:47.903Z,245
2017-02-21T12:49:57.266Z,245
2017-02-21T12:51:07.427Z,230
2017-02-21T12:52:16.359Z,235
2017-02-21T12:53:26.243Z,275
2017-02-21T12:54:35.985Z,610
2017-02-21T12:55:45.355Z,435
2017-02-21T12:56:55.366Z,380
2017-02-21T12:58:05.174Z,425
2017-02-21T12:59:15.119Z,545
2017-02-21T13:00:24.044Z,355
2017-02-21T13:01:33.395Z,325
2017-02-21T13:02:42.738Z,310
2017-02-21T13:03:52.062Z,475
2017-02-21T13:05:01.432Z,540
2017-02-21T13:06:11.188Z,550
2017-02-21T13:07:20.116Z,490
2017-02-21T13:08:29.033Z,425
2017-02-21T13:09:38.784Z,425
2017-02-21T13:10:47.767Z,270
2017-02-21T13:11:57.103Z,395
2017-02-21T13:13:07.261Z,465
2017-02-21T13:14:16.609Z,400
2017-02-21T13:15:25.984Z,455
2017-02-21T13:16:35.206Z,495
2017-02-21T13:17:44.542Z,1005
2017-02-21T13:18:54.272Z,500
2017-02-21T13:20:04.011Z,1240
2017-02-21T13:21:13.366Z,515
2017-02-21T13:22:22.413Z,430
2017-02-21T13:23:31.351Z,465
2017-02-21T13:24:40.693Z,995
2017-02-21T13:25:50.022Z,330
2017-02-21T13:26:58.935Z,320
2017-02-21T13:28:08.105Z,315
2017-02-21T13:29:17.032Z,340
2017-02-21T13:30:26.773Z,365
2017-02-21T13:31:36.110Z,415
2017-02-21T13:32:45.856Z,310
2017-02-21T13:33:54.936Z,305
2017-02-21T13:35:03.904Z,355
2017-02-21T13:36:13.271Z,510
2017-02-21T13:37:23.009Z,465
2017-02-21T13:38:32.490Z,430
2017-02-21T13:39:41.592Z,435
2017-02-21T13:40:51.337Z,450
2017-02-21T13:42:01.924Z,470
2017-02-21T13:43:11.253Z,1205
2017-02-21T13:44:20.992Z,515
2017-02-21T13:45:29.971Z,1060
2017-02-21T13:46:38.899Z,1015
2017-02-21T13:47:48.634Z,585
2017-02-21T13:48:58.403Z,600
2017-02-21T13:50:08.141Z,840
2017-02-21T13:51:17.124Z,1040
2017-02-21T13:52:26.501Z,600
2017-02-21T13:53:35.830Z,320
2017-02-21T13:54:45.173Z,590
2017-02-21T13:55:54.092Z,740
2017-02-21T13:57:03.611Z,445
2017-02-21T13:58:12.536Z,660
2017-02-21T13:59:22.275Z,615
2017-02-21T14:00:32.859Z,770
2017-02-21T14:01:42.187Z,730
2017-02-21T14:04:01.076Z,1245
2017-02-21T14:05:11.646Z,1000
2017-02-21T14:06:20.968Z,990
2017-02-21T14:07:30.287Z,985
2017-02-21T14:08:39.300Z,1025
2017-02-21T14:09:48.244Z,995
2017-02-21T14:10:57.160Z,655
2017-02-21T14:12:06.102Z,1175
2017-02-21T14:13:15.062Z,1210
2017-02-21T14:14:24.045Z,1365
2017-02-21T14:15:32.979Z,1225
2017-02-21T14:16:42.313Z,780
2017-02-21T14:17:52.064Z,710
2017-02-21T14:19:00.985Z,715
2017-02-21T14:20:10.455Z,340
2017-02-21T14:21:19.778Z,600
2017-02-21T14:22:29.522Z,595
2017-02-21T14:23:40.102Z,460
2017-02-21T14:24:49.861Z,485
2017-02-21T14:26:00.167Z,490
2017-02-21T14:27:09.092Z,460
2017-02-21T14:28:18.837Z,520
2017-02-21T14:29:28.990Z,415
2017-02-21T14:30:39.143Z,520
2017-02-21T14:31:48.929Z,605
2017-02-21T14:32:58.247Z,575
2017-02-21T14:34:07.593Z,490
2017-02-21T14:35:16.526Z,510
2017-02-21T14:36:26.287Z,560
2017-02-21T14:37:35.636Z,625
2017-02-21T14:38:45.383Z,615
2017-02-21T14:39:54.752Z,670
2017-02-21T14:41:05.303Z,640
2017-02-21T14:42:14.216Z,470
2017-02-21T14:43:23.554Z,510
2017-02-21T14:44:32.900Z,540
2017-02-21T14:45:42.254Z,645
2017-02-21T14:46:52.424Z,390
2017-02-21T14:48:01.797Z,535
2017-02-21T14:49:11.739Z,650
2017-02-21T14:50:21.075Z,695
2017-02-21T14:51:30.404Z,715
2017-02-21T14:52:40.146Z,580
2017-02-21T14:53:50.321Z,515
2017-02-21T14:54:59.503Z,445
2017-02-21T14:56:09.282Z,390
2017-02-21T14:57:18.614Z,515
2017-02-21T14:58:28.372Z,470
2017-02-21T14:59:37.303Z,500
2017-02-21T15:00:47.845Z,395
2017-02-21T15:01:57.581Z,280
2017-02-21T15:03:06.529Z,290
2017-02-21T15:04:15.881Z,300
2017-02-21T15:05:25.210Z,295
2017-02-21T15:06:35.104Z,490
2017-02-21T15:07:44.448Z,260
2017-02-21T15:08:53.778Z,295
2017-02-21T15:10:03.544Z,340
2017-02-21T15:11:12.884Z,420
2017-02-21T15:12:22.062Z,415
2017-02-21T15:13:31.384Z,270
2017-02-21T15:14:40.724Z,410
2017-02-21T15:15:50.075Z,495
2017-02-21T15:16:59.402Z,505
2017-02-21T15:18:09.202Z,460
2017-02-21T15:19:18.134Z,545
2017-02-21T15:20:27.057Z,525
2017-02-21T15:21:36.832Z,390
2017-02-21T15:22:46.563Z,295
2017-02-21T15:23:56.026Z,365
2017-02-21T15:25:06.166Z,265
2017-02-21T15:26:16.328Z,240
2017-02-21T15:27:25.653Z,305
2017-02-21T15:28:34.983Z,295
2017-02-21T15:29:43.976Z,260
2017-02-21T15:30:52.899Z,245
2017-02-21T15:32:01.950Z,240
2017-02-21T15:33:11.679Z,230
2017-02-21T15:34:21.004Z,240
2017-02-21T15:35:30.841Z,260
2017-02-21T15:36:39.756Z,295
2017-02-21T15:37:49.491Z,295
2017-02-21T15:38:59.229Z,325
2017-02-21T15:40:08.555Z,350
2017-02-21T15:41:18.052Z,320
2017-02-21T15:42:27.808Z,290
2017-02-21T15:43:37.141Z,275
2017-02-21T15:44:46.064Z,260
2017-02-21T15:45:55.400Z,215
2017-02-21T15:47:05.225Z,200
2017-02-21T15:48:14.151Z,215
2017-02-21T15:49:23.076Z,215
2017-02-21T15:50:32.425Z,225
2017-02-21T15:51:41.346Z,235
2017-02-21T15:52:51.789Z,175
2017-02-21T15:54:01.108Z,165
2017-02-21T15:55:10.443Z,155
2017-02-21T15:56:19.399Z,145
2017-02-21T15:57:29.572Z,160
2017-02-21T15:58:38.993Z,165
2017-02-21T15:59:48.332Z,185
2017-02-21T16:00:57.656Z,175
2017-02-21T16:02:07.407Z,175
2017-02-21T16:03:17.150Z,170
2017-02-21T16:04:27.498Z,170
2017-02-21T16:05:38.056Z,160
2017-02-21T16:06:48.626Z,140
2017-02-21T16:07:57.965Z,130
2017-02-21T16:09:07.722Z,125
2017-02-21T16:10:17.264Z,115
2017-02-21T16:11:27.012Z,120
2017-02-21T16:12:36.768Z,115
2017-02-21T16:13:46.923Z,110
2017-02-21T16:14:57.903Z,105
2017-02-21T16:16:06.991Z,115
2017-02-21T16:17:16.753Z,105
2017-02-21T16:18:25.672Z,105
2017-02-21T16:19:35.394Z,100
2017-02-21T16:20:45.152Z,95
2017-02-21T16:21:54.946Z,95
2017-02-21T16:23:04.706Z,90
2017-02-21T16:24:13.624Z,85
2017-02-21T16:25:23.363Z,80
2017-02-21T16:26:32.681Z,75
2017-02-21T16:27:42.626Z,75